sensor_id;sensor_type;location;lat;lon;timestamp;temperature;humidity
26954;DHT22;14508;50.924;11.600;2024-01-15T00:01:13;2.10;99.90
26954;DHT22;14508;50.924;11.600;2024-01-15T00:03:41;2.10;99.90
26954;DHT22;14508;50.924;11.600;2024-01-15T00:06:12;2.10;99.90
26954;DHT22;14508;50.924;11.600;2024-01-15T00:08:41;2.10;99.90
26954;DHT22;14508;50.924;11.600;2024-01-15T00:11:09;2.20;99.90
26954;DHT22;14508;50.924;11.600;2024-01-15T00:13:37;2.10;99.90
26954;DHT22;14508;50.924;11.600;2024-01-15T00:16:05;2.10;99.90
26954;DHT22;14508;50.924;11.600;2024-01-15T00:18:33;2.10;99.90
26954;DHT22;14508;50.924;11.600;2024-01-15T00:21:01;2.10;99.90
26954;DHT22;14508;50.924;11.600;2024-01-15T00:23:30;2.10;99.90
26954;DHT22;14508;50.924;11.600;2024-01-15T00:25:59;2.10;99.90
26954;DHT22;14508;50.924;11.600;2024-01-15T00:28:27;2.10;99.90
26954;DHT22;14508;50.924;11.600;2024-01-15T00:30:55;2.10;99.90
26954;DHT22;14508;50.924;11.600;2024-01-15T00:33:23;2.10;99.90
26954;DHT22;14508;50.924;11.600;2024-01-15T00:35:51;2.10;99.90
26954;DHT22;14508;50.924;11.600;2024-01-15T00:38:19;2.10;99.90
26954;DHT22;14508;50.924;11.600;2024-01-15T00:40:47;2.20;99.90
26954;DHT22;14508;50.924;11.600;2024-01-15T00:43:16;2.10;99.90
26954;DHT22;14508;50.924;11.600;2024-01-15T00:45:45;2.10;99.90
26954;DHT22;14508;50.924;11.600;2024-01-15T00:48:13;2.10;99.90
26954;DHT22;14508;50.924;11.600;2024-01-15T00:50:41;2.10;99.90
26954;DHT22;14508;50.924;11.600;2024-01-15T00:53:09;2.00;99.90
26954;DHT22;14508;50.924;11.600;2024-01-15T00:55:37;2.00;99.90
26954;DHT22;14508;50.924;11.600;2024-01-15T00:58:05;2.00;99.90
26954;DHT22;14508;50.924;11.600;2024-01-15T01:00:34;2.00;99.90
26954;DHT22;14508;50.924;11.600;2024-01-15T01:03:02;2.00;99.90
26954;DHT22;14508;50.924;11.600;2024-01-15T01:05:30;2.00;99.90
26954;DHT22;14508;50.924;11.600;2024-01-15T01:07:58;2.00;99.90
26954;DHT22;14508;50.924;11.600;2024-01-15T01:10:26;2.00;99.90
26954;DHT22;14508;50.924;11.600;2024-01-15T01:12:54;1.90;99.90
26954;DHT22;14508;50.924;11.600;2024-01-15T01:15:22;2.00;99.90
26954;DHT22;14508;50.924;11.600;2024-01-15T01:17:52;1.90;99.90
26954;DHT22;14508;50.924;11.600;2024-01-15T01:20:21;1.90;99.90
26954;DHT22;14508;50.924;11.600;2024-01-15T01:22:50;1.90;99.90
26954;DHT22;14508;50.924;11.600;2024-01-15T01:25:17;1.90;99.90
26954;DHT22;14508;50.924;11.600;2024-01-15T01:27:46;1.80;99.90
26954;DHT22;14508;50.924;11.600;2024-01-15T01:30:13;1.80;99.90
26954;DHT22;14508;50.924;11.600;2024-01-15T01:32:42;1.80;99.90
26954;DHT22;14508;50.924;11.600;2024-01-15T01:35:12;1.80;99.90
26954;DHT22;14508;50.924;11.600;2024-01-15T01:37:40;1.80;99.90
26954;DHT22;14508;50.924;11.600;2024-01-15T01:40:09;1.70;99.90
26954;DHT22;14508;50.924;11.600;2024-01-15T01:42:37;1.70;99.90
26954;DHT22;14508;50.924;11.600;2024-01-15T01:45:06;1.70;99.90
26954;DHT22;14508;50.924;11.600;2024-01-15T01:47:34;1.70;99.90
26954;DHT22;14508;50.924;11.600;2024-01-15T01:50:02;1.70;99.90
26954;DHT22;14508;50.924;11.600;2024-01-15T01:52:32;1.70;99.90
26954;DHT22;14508;50.924;11.600;2024-01-15T01:55:01;1.60;99.90
26954;DHT22;14508;50.924;11.600;2024-01-15T01:57:30;1.60;99.90
26954;DHT22;14508;50.924;11.600;2024-01-15T01:59:59;1.60;99.90
26954;DHT22;14508;50.924;11.600;2024-01-15T02:02:37;1.60;99.90
26954;DHT22;14508;50.924;11.600;2024-01-15T02:05:06;1.60;99.90
26954;DHT22;14508;50.924;11.600;2024-01-15T02:07:35;1.60;99.90
26954;DHT22;14508;50.924;11.600;2024-01-15T02:10:04;1.60;99.90
26954;DHT22;14508;50.924;11.600;2024-01-15T02:12:33;1.60;99.90
26954;DHT22;14508;50.924;11.600;2024-01-15T02:15:01;1.60;99.90
26954;DHT22;14508;50.924;11.600;2024-01-15T02:17:29;1.60;99.90
26954;DHT22;14508;50.924;11.600;2024-01-15T02:19:57;1.60;99.90
26954;DHT22;14508;50.924;11.600;2024-01-15T02:22:25;1.60;99.90
26954;DHT22;14508;50.924;11.600;2024-01-15T02:24:54;1.60;99.90
26954;DHT22;14508;50.924;11.600;2024-01-15T02:27:22;1.60;99.90
26954;DHT22;14508;50.924;11.600;2024-01-15T02:29:51;1.50;99.90
26954;DHT22;14508;50.924;11.600;2024-01-15T02:32:19;1.50;99.90
26954;DHT22;14508;50.924;11.600;2024-01-15T02:34:47;1.50;99.90
26954;DHT22;14508;50.924;11.600;2024-01-15T02:37:15;1.50;99.90
26954;DHT22;14508;50.924;11.600;2024-01-15T02:39:43;1.40;99.90
26954;DHT22;14508;50.924;11.600;2024-01-15T02:42:12;1.40;99.90
26954;DHT22;14508;50.924;11.600;2024-01-15T02:44:40;1.40;99.90
26954;DHT22;14508;50.924;11.600;2024-01-15T02:47:08;1.40;99.90
26954;DHT22;14508;50.924;11.600;2024-01-15T02:49:36;1.40;99.90
26954;DHT22;14508;50.924;11.600;2024-01-15T02:52:04;1.40;99.90
26954;DHT22;14508;50.924;11.600;2024-01-15T02:54:32;1.40;99.90
26954;DHT22;14508;50.924;11.600;2024-01-15T02:57:00;1.50;99.90
26954;DHT22;14508;50.924;11.600;2024-01-15T02:59:29;1.50;99.90
26954;DHT22;14508;50.924;11.600;2024-01-15T03:01:57;1.50;99.90
26954;DHT22;14508;50.924;11.600;2024-01-15T03:04:25;1.50;99.90
26954;DHT22;14508;50.924;11.600;2024-01-15T03:06:53;1.50;99.90
26954;DHT22;14508;50.924;11.600;2024-01-15T03:09:21;1.60;99.90
26954;DHT22;14508;50.924;11.600;2024-01-15T03:11:49;1.60;99.90
26954;DHT22;14508;50.924;11.600;2024-01-15T03:14:17;1.50;99.90
26954;DHT22;14508;50.924;11.600;2024-01-15T03:16:46;1.50;99.90
26954;DHT22;14508;50.924;11.600;2024-01-15T03:19:14;1.50;99.90
26954;DHT22;14508;50.924;11.600;2024-01-15T03:21:42;1.50;99.90
26954;DHT22;14508;50.924;11.600;2024-01-15T03:24:10;1.60;99.90
26954;DHT22;14508;50.924;11.600;2024-01-15T03:26:38;1.60;99.90
26954;DHT22;14508;50.924;11.600;2024-01-15T03:29:07;1.70;99.90
26954;DHT22;14508;50.924;11.600;2024-01-15T03:31:35;1.70;99.90
26954;DHT22;14508;50.924;11.600;2024-01-15T03:34:05;1.70;99.90
26954;DHT22;14508;50.924;11.600;2024-01-15T03:36:33;1.70;99.90
26954;DHT22;14508;50.924;11.600;2024-01-15T03:39:00;1.80;99.90
26954;DHT22;14508;50.924;11.600;2024-01-15T03:41:28;1.80;99.90
26954;DHT22;14508;50.924;11.600;2024-01-15T03:43:56;1.70;99.90
26954;DHT22;14508;50.924;11.600;2024-01-15T03:46:25;1.70;99.90
26954;DHT22;14508;50.924;11.600;2024-01-15T03:48:53;1.70;99.90
26954;DHT22;14508;50.924;11.600;2024-01-15T03:51:23;1.80;99.90
26954;DHT22;14508;50.924;11.600;2024-01-15T03:53:51;1.70;99.90
26954;DHT22;14508;50.924;11.600;2024-01-15T03:56:19;1.80;99.90
26954;DHT22;14508;50.924;11.600;2024-01-15T03:58:47;1.70;99.90
26954;DHT22;14508;50.924;11.600;2024-01-15T04:01:15;1.70;99.90
26954;DHT22;14508;50.924;11.600;2024-01-15T04:03:43;1.80;99.90
26954;DHT22;14508;50.924;11.600;2024-01-15T04:06:11;1.80;99.90
26954;DHT22;14508;50.924;11.600;2024-01-15T04:08:40;1.80;99.90
26954;DHT22;14508;50.924;11.600;2024-01-15T04:11:08;1.80;99.90
26954;DHT22;14508;50.924;11.600;2024-01-15T04:13:36;1.80;99.90
26954;DHT22;14508;50.924;11.600;2024-01-15T04:16:07;1.80;99.90
26954;DHT22;14508;50.924;11.600;2024-01-15T04:18:34;1.80;99.90
26954;DHT22;14508;50.924;11.600;2024-01-15T04:21:04;1.70;99.90
26954;DHT22;14508;50.924;11.600;2024-01-15T04:23:32;1.70;99.90
26954;DHT22;14508;50.924;11.600;2024-01-15T04:26:01;1.60;99.90
26954;DHT22;14508;50.924;11.600;2024-01-15T04:28:29;1.60;99.90
26954;DHT22;14508;50.924;11.600;2024-01-15T04:30:57;1.60;99.90
26954;DHT22;14508;50.924;11.600;2024-01-15T04:33:25;1.60;99.90
26954;DHT22;14508;50.924;11.600;2024-01-15T04:35:53;1.50;99.90
26954;DHT22;14508;50.924;11.600;2024-01-15T04:38:21;1.50;99.90
26954;DHT22;14508;50.924;11.600;2024-01-15T04:40:49;1.40;99.90
26954;DHT22;14508;50.924;11.600;2024-01-15T04:43:21;1.30;99.90
26954;DHT22;14508;50.924;11.600;2024-01-15T04:45:49;1.30;99.90
26954;DHT22;14508;50.924;11.600;2024-01-15T04:48:17;1.30;99.90
26954;DHT22;14508;50.924;11.600;2024-01-15T04:50:45;1.20;99.90
26954;DHT22;14508;50.924;11.600;2024-01-15T04:53:13;1.10;99.90
26954;DHT22;14508;50.924;11.600;2024-01-15T04:55:41;1.10;99.90
26954;DHT22;14508;50.924;11.600;2024-01-15T04:58:08;1.00;99.90
26954;DHT22;14508;50.924;11.600;2024-01-15T05:00:38;1.00;99.90
26954;DHT22;14508;50.924;11.600;2024-01-15T05:03:06;1.00;99.90
26954;DHT22;14508;50.924;11.600;2024-01-15T05:05:34;0.90;99.90
26954;DHT22;14508;50.924;11.600;2024-01-15T05:08:02;0.90;99.90
26954;DHT22;14508;50.924;11.600;2024-01-15T05:10:30;0.90;99.90
26954;DHT22;14508;50.924;11.600;2024-01-15T05:12:58;0.90;99.90
26954;DHT22;14508;50.924;11.600;2024-01-15T05:15:26;0.90;99.90
26954;DHT22;14508;50.924;11.600;2024-01-15T05:17:55;1.00;99.90
26954;DHT22;14508;50.924;11.600;2024-01-15T05:20:24;1.00;99.90
26954;DHT22;14508;50.924;11.600;2024-01-15T05:22:52;1.00;99.90
26954;DHT22;14508;50.924;11.600;2024-01-15T05:25:20;1.00;99.90
26954;DHT22;14508;50.924;11.600;2024-01-15T05:27:48;1.00;99.90
26954;DHT22;14508;50.924;11.600;2024-01-15T05:30:16;1.00;99.90
26954;DHT22;14508;50.924;11.600;2024-01-15T05:32:44;0.90;99.90
26954;DHT22;14508;50.924;11.600;2024-01-15T05:35:13;0.90;99.90
26954;DHT22;14508;50.924;11.600;2024-01-15T05:37:44;0.80;99.90
26954;DHT22;14508;50.924;11.600;2024-01-15T05:40:12;0.80;99.90
26954;DHT22;14508;50.924;11.600;2024-01-15T05:42:41;0.80;99.90
26954;DHT22;14508;50.924;11.600;2024-01-15T05:45:09;0.80;99.90
26954;DHT22;14508;50.924;11.600;2024-01-15T05:47:37;0.70;99.90
26954;DHT22;14508;50.924;11.600;2024-01-15T05:50:08;0.70;99.90
26954;DHT22;14508;50.924;11.600;2024-01-15T05:52:38;0.80;99.90
26954;DHT22;14508;50.924;11.600;2024-01-15T05:55:06;0.70;99.90
26954;DHT22;14508;50.924;11.600;2024-01-15T05:57:34;0.70;99.90
26954;DHT22;14508;50.924;11.600;2024-01-15T06:00:03;0.80;99.90
26954;DHT22;14508;50.924;11.600;2024-01-15T06:02:32;0.70;99.90
26954;DHT22;14508;50.924;11.600;2024-01-15T06:05:00;0.70;99.90
26954;DHT22;14508;50.924;11.600;2024-01-15T06:07:29;0.70;99.90
26954;DHT22;14508;50.924;11.600;2024-01-15T06:09:59;0.70;99.90
26954;DHT22;14508;50.924;11.600;2024-01-15T06:12:28;0.70;99.90
26954;DHT22;14508;50.924;11.600;2024-01-15T06:14:56;0.80;99.90
26954;DHT22;14508;50.924;11.600;2024-01-15T06:17:24;0.80;99.90
26954;DHT22;14508;50.924;11.600;2024-01-15T06:19:52;0.80;99.90
26954;DHT22;14508;50.924;11.600;2024-01-15T06:22:20;0.80;99.90
26954;DHT22;14508;50.924;11.600;2024-01-15T06:24:48;0.80;99.90
26954;DHT22;14508;50.924;11.600;2024-01-15T06:27:17;0.80;99.90
26954;DHT22;14508;50.924;11.600;2024-01-15T06:29:46;0.80;99.90
26954;DHT22;14508;50.924;11.600;2024-01-15T06:32:19;0.80;99.90
26954;DHT22;14508;50.924;11.600;2024-01-15T06:34:46;0.70;99.90
26954;DHT22;14508;50.924;11.600;2024-01-15T06:37:14;0.70;99.90
26954;DHT22;14508;50.924;11.600;2024-01-15T06:39:42;0.70;99.90
26954;DHT22;14508;50.924;11.600;2024-01-15T06:42:10;0.70;99.90
26954;DHT22;14508;50.924;11.600;2024-01-15T06:44:40;0.70;99.90
26954;DHT22;14508;50.924;11.600;2024-01-15T06:47:08;0.70;99.90
26954;DHT22;14508;50.924;11.600;2024-01-15T06:49:35;0.70;99.90
26954;DHT22;14508;50.924;11.600;2024-01-15T06:52:04;0.70;99.90
26954;DHT22;14508;50.924;11.600;2024-01-15T06:54:33;0.70;99.90
26954;DHT22;14508;50.924;11.600;2024-01-15T06:57:01;0.70;99.90
26954;DHT22;14508;50.924;11.600;2024-01-15T06:59:28;0.70;99.90
26954;DHT22;14508;50.924;11.600;2024-01-15T07:01:58;0.70;99.90
26954;DHT22;14508;50.924;11.600;2024-01-15T07:04:26;0.70;99.90
26954;DHT22;14508;50.924;11.600;2024-01-15T07:06:54;0.70;99.90
26954;DHT22;14508;50.924;11.600;2024-01-15T07:09:22;0.80;99.90
26954;DHT22;14508;50.924;11.600;2024-01-15T07:11:50;0.90;99.90
26954;DHT22;14508;50.924;11.600;2024-01-15T07:14:18;1.00;99.90
26954;DHT22;14508;50.924;11.600;2024-01-15T07:16:46;1.10;99.90
26954;DHT22;14508;50.924;11.600;2024-01-15T07:19:16;1.20;99.90
26954;DHT22;14508;50.924;11.600;2024-01-15T07:21:44;1.20;99.90
26954;DHT22;14508;50.924;11.600;2024-01-15T07:24:12;1.30;99.90
26954;DHT22;14508;50.924;11.600;2024-01-15T07:26:40;1.40;99.90
26954;DHT22;14508;50.924;11.600;2024-01-15T07:29:08;1.40;99.90
26954;DHT22;14508;50.924;11.600;2024-01-15T07:31:36;1.50;99.90
26954;DHT22;14508;50.924;11.600;2024-01-15T07:34:04;1.50;99.90
26954;DHT22;14508;50.924;11.600;2024-01-15T07:36:34;1.60;99.90
26954;DHT22;14508;50.924;11.600;2024-01-15T07:39:02;1.60;99.90
26954;DHT22;14508;50.924;11.600;2024-01-15T07:41:31;1.60;99.90
26954;DHT22;14508;50.924;11.600;2024-01-15T07:43:59;1.60;99.90
26954;DHT22;14508;50.924;11.600;2024-01-15T07:46:27;1.70;99.90
26954;DHT22;14508;50.924;11.600;2024-01-15T07:48:55;1.70;99.90
26954;DHT22;14508;50.924;11.600;2024-01-15T07:51:24;1.70;99.90
26954;DHT22;14508;50.924;11.600;2024-01-15T07:53:54;1.80;99.90
26954;DHT22;14508;50.924;11.600;2024-01-15T07:56:22;1.80;99.90
26954;DHT22;14508;50.924;11.600;2024-01-15T07:58:50;1.80;99.90
26954;DHT22;14508;50.924;11.600;2024-01-15T08:01:18;1.80;99.90
26954;DHT22;14508;50.924;11.600;2024-01-15T08:03:46;1.80;99.90
26954;DHT22;14508;50.924;11.600;2024-01-15T08:06:15;1.80;99.90
26954;DHT22;14508;50.924;11.600;2024-01-15T08:08:43;1.80;99.90
26954;DHT22;14508;50.924;11.600;2024-01-15T08:11:13;1.80;99.90
26954;DHT22;14508;50.924;11.600;2024-01-15T08:13:41;1.70;99.90
26954;DHT22;14508;50.924;11.600;2024-01-15T08:16:09;1.70;99.90
26954;DHT22;14508;50.924;11.600;2024-01-15T08:18:37;1.70;99.90
26954;DHT22;14508;50.924;11.600;2024-01-15T08:21:05;1.70;99.90
26954;DHT22;14508;50.924;11.600;2024-01-15T08:23:34;1.70;99.90
26954;DHT22;14508;50.924;11.600;2024-01-15T08:26:02;1.80;99.90
26954;DHT22;14508;50.924;11.600;2024-01-15T08:28:32;1.80;99.90
26954;DHT22;14508;50.924;11.600;2024-01-15T08:31:00;1.90;99.90
26954;DHT22;14508;50.924;11.600;2024-01-15T08:33:28;2.00;99.80
26954;DHT22;14508;50.924;11.600;2024-01-15T08:35:56;2.00;99.90
26954;DHT22;14508;50.924;11.600;2024-01-15T08:38:25;2.00;99.90
26954;DHT22;14508;50.924;11.600;2024-01-15T08:40:53;2.10;99.90
26954;DHT22;14508;50.924;11.600;2024-01-15T08:43:23;2.20;99.70
26954;DHT22;14508;50.924;11.600;2024-01-15T08:45:53;2.20;99.60
26954;DHT22;14508;50.924;11.600;2024-01-15T08:48:21;2.20;99.20
26954;DHT22;14508;50.924;11.600;2024-01-15T08:50:51;2.20;98.90
26954;DHT22;14508;50.924;11.600;2024-01-15T08:53:19;2.20;98.70
26954;DHT22;14508;50.924;11.600;2024-01-15T08:55:47;2.20;98.40
26954;DHT22;14508;50.924;11.600;2024-01-15T08:58:16;2.20;98.60
26954;DHT22;14508;50.924;11.600;2024-01-15T09:00:44;2.20;98.40
26954;DHT22;14508;50.924;11.600;2024-01-15T09:03:14;2.30;98.30
26954;DHT22;14508;50.924;11.600;2024-01-15T09:05:41;2.40;97.30
26954;DHT22;14508;50.924;11.600;2024-01-15T09:08:09;2.50;97.00
26954;DHT22;14508;50.924;11.600;2024-01-15T09:10:37;2.50;97.00
26954;DHT22;14508;50.924;11.600;2024-01-15T09:13:05;2.60;96.40
26954;DHT22;14508;50.924;11.600;2024-01-15T09:15:33;2.70;96.10
26954;DHT22;14508;50.924;11.600;2024-01-15T09:18:01;2.70;96.00
26954;DHT22;14508;50.924;11.600;2024-01-15T09:20:35;2.80;95.50
26954;DHT22;14508;50.924;11.600;2024-01-15T09:23:03;2.80;94.90
26954;DHT22;14508;50.924;11.600;2024-01-15T09:25:31;2.80;94.60
26954;DHT22;14508;50.924;11.600;2024-01-15T09:27:59;2.90;94.30
26954;DHT22;14508;50.924;11.600;2024-01-15T09:30:27;2.90;94.10
26954;DHT22;14508;50.924;11.600;2024-01-15T09:32:55;2.90;93.80
26954;DHT22;14508;50.924;11.600;2024-01-15T09:35:24;3.00;93.70
26954;DHT22;14508;50.924;11.600;2024-01-15T09:37:54;2.90;93.50
26954;DHT22;14508;50.924;11.600;2024-01-15T09:40:22;2.80;93.70
26954;DHT22;14508;50.924;11.600;2024-01-15T09:42:52;2.70;93.40
26954;DHT22;14508;50.924;11.600;2024-01-15T09:45:20;2.70;93.90
26954;DHT22;14508;50.924;11.600;2024-01-15T09:47:48;2.70;93.90
26954;DHT22;14508;50.924;11.600;2024-01-15T09:50:16;2.90;93.60
26954;DHT22;14508;50.924;11.600;2024-01-15T09:52:44;3.00;92.90
26954;DHT22;14508;50.924;11.600;2024-01-15T09:55:15;3.30;92.40
26954;DHT22;14508;50.924;11.600;2024-01-15T09:57:44;3.40;92.00
26954;DHT22;14508;50.924;11.600;2024-01-15T10:00:14;3.60;91.70
26954;DHT22;14508;50.924;11.600;2024-01-15T10:02:45;3.70;90.80
26954;DHT22;14508;50.924;11.600;2024-01-15T10:05:13;3.80;90.40
26954;DHT22;14508;50.924;11.600;2024-01-15T10:07:42;3.80;90.20
26954;DHT22;14508;50.924;11.600;2024-01-15T10:10:11;3.60;89.70
26954;DHT22;14508;50.924;11.600;2024-01-15T10:12:42;3.60;90.00
26954;DHT22;14508;50.924;11.600;2024-01-15T10:15:10;3.60;89.80
26954;DHT22;14508;50.924;11.600;2024-01-15T10:17:39;3.60;89.90
26954;DHT22;14508;50.924;11.600;2024-01-15T10:20:09;3.50;89.80
26954;DHT22;14508;50.924;11.600;2024-01-15T10:22:40;3.50;90.00
26954;DHT22;14508;50.924;11.600;2024-01-15T10:25:10;3.60;89.80
26954;DHT22;14508;50.924;11.600;2024-01-15T10:27:40;3.70;90.10
26954;DHT22;14508;50.924;11.600;2024-01-15T10:30:11;3.80;89.50
26954;DHT22;14508;50.924;11.600;2024-01-15T10:32:41;3.80;89.30
26954;DHT22;14508;50.924;11.600;2024-01-15T10:35:10;4.00;89.10
26954;DHT22;14508;50.924;11.600;2024-01-15T10:37:38;4.00;88.20
26954;DHT22;14508;50.924;11.600;2024-01-15T10:40:07;3.90;88.10
26954;DHT22;14508;50.924;11.600;2024-01-15T10:42:35;4.00;88.30
26954;DHT22;14508;50.924;11.600;2024-01-15T10:45:05;4.10;88.30
26954;DHT22;14508;50.924;11.600;2024-01-15T10:47:35;4.20;87.50
26954;DHT22;14508;50.924;11.600;2024-01-15T10:50:05;4.20;85.80
26954;DHT22;14508;50.924;11.600;2024-01-15T10:52:35;4.20;86.50
26954;DHT22;14508;50.924;11.600;2024-01-15T10:55:03;4.20;86.00
26954;DHT22;14508;50.924;11.600;2024-01-15T10:57:40;4.20;85.20
26954;DHT22;14508;50.924;11.600;2024-01-15T11:00:10;4.10;85.30
26954;DHT22;14508;50.924;11.600;2024-01-15T11:02:42;4.10;86.20
26954;DHT22;14508;50.924;11.600;2024-01-15T11:05:12;4.10;86.30
26954;DHT22;14508;50.924;11.600;2024-01-15T11:07:41;4.00;86.00
26954;DHT22;14508;50.924;11.600;2024-01-15T11:10:38;3.90;86.00
26954;DHT22;14508;50.924;11.600;2024-01-15T11:13:09;3.70;87.50
26954;DHT22;14508;50.924;11.600;2024-01-15T11:15:56;3.50;88.40
26954;DHT22;14508;50.924;11.600;2024-01-15T11:18:26;3.50;88.90
26954;DHT22;14508;50.924;11.600;2024-01-15T11:21:20;3.60;89.40
26954;DHT22;14508;50.924;11.600;2024-01-15T11:23:50;3.70;88.70
26954;DHT22;14508;50.924;11.600;2024-01-15T11:26:30;3.70;88.70
26954;DHT22;14508;50.924;11.600;2024-01-15T11:29:00;3.70;88.70
26954;DHT22;14508;50.924;11.600;2024-01-15T11:31:30;3.70;89.10
26954;DHT22;14508;50.924;11.600;2024-01-15T11:34:17;3.60;88.70
26954;DHT22;14508;50.924;11.600;2024-01-15T11:37:01;3.50;88.80
26954;DHT22;14508;50.924;11.600;2024-01-15T11:39:39;3.50;89.10
26954;DHT22;14508;50.924;11.600;2024-01-15T11:42:10;3.40;89.40
26954;DHT22;14508;50.924;11.600;2024-01-15T11:44:39;3.20;89.80
26954;DHT22;14508;50.924;11.600;2024-01-15T11:47:09;3.20;89.80
26954;DHT22;14508;50.924;11.600;2024-01-15T11:50:00;3.10;90.00
26954;DHT22;14508;50.924;11.600;2024-01-15T11:52:33;3.10;90.00
26954;DHT22;14508;50.924;11.600;2024-01-15T11:55:06;3.10;89.80
26954;DHT22;14508;50.924;11.600;2024-01-15T11:57:40;3.10;89.80
26954;DHT22;14508;50.924;11.600;2024-01-15T12:00:10;3.30;89.70
26954;DHT22;14508;50.924;11.600;2024-01-15T12:02:40;3.50;89.00
26954;DHT22;14508;50.924;11.600;2024-01-15T12:05:09;3.80;87.50
26954;DHT22;14508;50.924;11.600;2024-01-15T12:07:39;4.00;86.60
26954;DHT22;14508;50.924;11.600;2024-01-15T12:10:11;4.20;85.80
26954;DHT22;14508;50.924;11.600;2024-01-15T12:12:57;4.40;84.40
26954;DHT22;14508;50.924;11.600;2024-01-15T12:15:26;4.50;84.00
26954;DHT22;14508;50.924;11.600;2024-01-15T12:17:58;4.60;82.90
26954;DHT22;14508;50.924;11.600;2024-01-15T12:20:27;4.60;82.00
26954;DHT22;14508;50.924;11.600;2024-01-15T12:22:55;4.70;82.30
26954;DHT22;14508;50.924;11.600;2024-01-15T12:25:30;4.90;81.10
26954;DHT22;14508;50.924;11.600;2024-01-15T12:27:58;4.80;80.50
26954;DHT22;14508;50.924;11.600;2024-01-15T12:30:27;4.70;79.90
26954;DHT22;14508;50.924;11.600;2024-01-15T12:32:57;4.60;80.40
26954;DHT22;14508;50.924;11.600;2024-01-15T12:35:25;4.50;80.90
26954;DHT22;14508;50.924;11.600;2024-01-15T12:37:54;4.50;81.00
26954;DHT22;14508;50.924;11.600;2024-01-15T12:40:23;4.50;80.30
26954;DHT22;14508;50.924;11.600;2024-01-15T12:42:52;4.40;80.70
26954;DHT22;14508;50.924;11.600;2024-01-15T12:45:20;4.40;81.40
26954;DHT22;14508;50.924;11.600;2024-01-15T12:47:48;4.40;81.40
26954;DHT22;14508;50.924;11.600;2024-01-15T12:50:19;4.40;81.80
26954;DHT22;14508;50.924;11.600;2024-01-15T12:52:47;4.30;82.20
26954;DHT22;14508;50.924;11.600;2024-01-15T12:55:16;4.20;82.10
26954;DHT22;14508;50.924;11.600;2024-01-15T12:57:44;4.10;83.00
26954;DHT22;14508;50.924;11.600;2024-01-15T13:00:13;4.00;83.70
26954;DHT22;14508;50.924;11.600;2024-01-15T13:02:45;4.10;84.40
26954;DHT22;14508;50.924;11.600;2024-01-15T13:05:13;4.10;84.80
26954;DHT22;14508;50.924;11.600;2024-01-15T13:07:45;4.10;84.70
26954;DHT22;14508;50.924;11.600;2024-01-15T13:10:13;4.10;85.10
26954;DHT22;14508;50.924;11.600;2024-01-15T13:12:41;4.10;85.20
26954;DHT22;14508;50.924;11.600;2024-01-15T13:15:10;4.00;85.70
26954;DHT22;14508;50.924;11.600;2024-01-15T13:17:41;4.00;86.10
26954;DHT22;14508;50.924;11.600;2024-01-15T13:20:11;3.90;86.10
26954;DHT22;14508;50.924;11.600;2024-01-15T13:22:40;3.80;86.90
26954;DHT22;14508;50.924;11.600;2024-01-15T13:25:12;3.70;87.50
26954;DHT22;14508;50.924;11.600;2024-01-15T13:27:41;3.70;88.10
26954;DHT22;14508;50.924;11.600;2024-01-15T13:30:10;3.70;88.70
26954;DHT22;14508;50.924;11.600;2024-01-15T13:32:39;3.80;89.10
26954;DHT22;14508;50.924;11.600;2024-01-15T13:35:08;3.70;89.30
26954;DHT22;14508;50.924;11.600;2024-01-15T13:37:40;3.70;90.00
26954;DHT22;14508;50.924;11.600;2024-01-15T13:40:09;3.70;90.30
26954;DHT22;14508;50.924;11.600;2024-01-15T13:42:45;3.60;90.40
26954;DHT22;14508;50.924;11.600;2024-01-15T13:45:14;3.70;90.60
26954;DHT22;14508;50.924;11.600;2024-01-15T13:47:42;3.70;90.60
26954;DHT22;14508;50.924;11.600;2024-01-15T13:50:11;3.70;90.60
26954;DHT22;14508;50.924;11.600;2024-01-15T13:52:39;3.70;90.50
26954;DHT22;14508;50.924;11.600;2024-01-15T13:55:08;3.60;90.80
26954;DHT22;14508;50.924;11.600;2024-01-15T13:57:36;3.60;90.70
26954;DHT22;14508;50.924;11.600;2024-01-15T14:00:07;3.60;90.80
26954;DHT22;14508;50.924;11.600;2024-01-15T14:02:39;3.50;90.90
26954;DHT22;14508;50.924;11.600;2024-01-15T14:05:08;3.50;91.00
26954;DHT22;14508;50.924;11.600;2024-01-15T14:07:36;3.40;91.50
26954;DHT22;14508;50.924;11.600;2024-01-15T14:10:04;3.40;91.30
26954;DHT22;14508;50.924;11.600;2024-01-15T14:12:34;3.40;91.40
26954;DHT22;14508;50.924;11.600;2024-01-15T14:15:03;3.40;91.10
26954;DHT22;14508;50.924;11.600;2024-01-15T14:17:33;3.30;91.30
26954;DHT22;14508;50.924;11.600;2024-01-15T14:20:01;3.30;91.30
26954;DHT22;14508;50.924;11.600;2024-01-15T14:22:32;3.30;91.60
26954;DHT22;14508;50.924;11.600;2024-01-15T14:25:00;3.30;91.70
26954;DHT22;14508;50.924;11.600;2024-01-15T14:27:28;3.40;91.60
26954;DHT22;14508;50.924;11.600;2024-01-15T14:29:56;3.40;91.60
26954;DHT22;14508;50.924;11.600;2024-01-15T14:32:24;3.30;91.90
26954;DHT22;14508;50.924;11.600;2024-01-15T14:34:53;3.40;91.70
26954;DHT22;14508;50.924;11.600;2024-01-15T14:37:23;3.30;92.00
26954;DHT22;14508;50.924;11.600;2024-01-15T14:39:51;3.30;92.30
26954;DHT22;14508;50.924;11.600;2024-01-15T14:42:19;3.30;92.40
26954;DHT22;14508;50.924;11.600;2024-01-15T14:44:47;3.30;92.20
26954;DHT22;14508;50.924;11.600;2024-01-15T14:47:15;3.20;92.40
26954;DHT22;14508;50.924;11.600;2024-01-15T14:49:43;3.20;92.40
26954;DHT22;14508;50.924;11.600;2024-01-15T14:52:13;3.20;92.50
26954;DHT22;14508;50.924;11.600;2024-01-15T14:54:40;3.20;92.80
26954;DHT22;14508;50.924;11.600;2024-01-15T14:57:09;3.10;93.00
26954;DHT22;14508;50.924;11.600;2024-01-15T14:59:37;3.10;93.20
26954;DHT22;14508;50.924;11.600;2024-01-15T15:02:05;3.10;93.20
26954;DHT22;14508;50.924;11.600;2024-01-15T15:04:33;3.10;93.50
26954;DHT22;14508;50.924;11.600;2024-01-15T15:07:01;3.10;93.60
26954;DHT22;14508;50.924;11.600;2024-01-15T15:09:31;3.10;93.80
26954;DHT22;14508;50.924;11.600;2024-01-15T15:11:58;3.10;94.00
26954;DHT22;14508;50.924;11.600;2024-01-15T15:14:26;3.10;94.40
26954;DHT22;14508;50.924;11.600;2024-01-15T15:16:54;3.10;94.60
26954;DHT22;14508;50.924;11.600;2024-01-15T15:19:22;3.00;94.60
26954;DHT22;14508;50.924;11.600;2024-01-15T15:21:50;3.00;94.70
26954;DHT22;14508;50.924;11.600;2024-01-15T15:24:19;3.00;94.70
26954;DHT22;14508;50.924;11.600;2024-01-15T15:26:48;3.10;94.70
26954;DHT22;14508;50.924;11.600;2024-01-15T15:29:16;3.00;94.80
26954;DHT22;14508;50.924;11.600;2024-01-15T15:31:44;3.00;94.70
26954;DHT22;14508;50.924;11.600;2024-01-15T15:34:12;2.90;95.00
26954;DHT22;14508;50.924;11.600;2024-01-15T15:36:40;2.90;95.60
26954;DHT22;14508;50.924;11.600;2024-01-15T15:39:09;2.80;95.80
26954;DHT22;14508;50.924;11.600;2024-01-15T15:41:37;2.70;96.40